Time;durP1;ratioP1;P1;durP2;ratioP2;P2;SDS_P1;SDS_P2;PMS_P1;PMS_P2;Temp;Humidity;BMP_temperature;BMP_pressure;BME280_temperature;BME280_humidity;BME280_pressure;Samples;Min_cycle;Max_cycle;Signal;HPM_P1;HPM_P2
2023/04/09 00:01:38;;;;;;;12.90;11.00;;;3.30;99.90;;;;;;5042346;28;20518;-76
2023/04/09 00:04:05;;;;;;;12.17;8.80;;;3.30;99.90;;;;;;5039648;28;20547;-76
2023/04/09 00:06:32;;;;;;;13.33;10.30;;;3.30;99.90;;;;;;5039356;28;20530;-77
2023/04/09 00:08:59;;;;;;;10.80;8.90;;;3.40;99.90;;;;;;5042967;28;20457;-77
2023/04/09 00:11:26;;;;;;;13.77;10.63;;;3.30;99.90;;;;;;5042027;28;20465;-76
2023/04/09 00:13:54;;;;;;;12.17;10.63;;;3.40;99.90;;;;;;5035870;28;20462;-76
2023/04/09 00:16:21;;;;;;;14.93;8.93;;;3.40;99.90;;;;;;5035204;28;20477;-76
2023/04/09 00:18:48;;;;;;;12.20;9.83;;;3.40;99.90;;;;;;5040879;28;20920;-76
2023/04/09 00:21:15;;;;;;;12.00;9.90;;;3.30;99.90;;;;;;5037993;28;20457;-76
2023/04/09 00:23:43;;;;;;;12.27;9.63;;;3.30;99.90;;;;;;5032348;28;20482;-76
2023/04/09 00:26:10;;;;;;;11.17;9.07;;;3.30;99.90;;;;;;5039495;28;20963;-77
2023/04/09 00:28:36;;;;;;;13.60;10.83;;;3.30;99.90;;;;;;5031555;28;20465;-76
2023/04/09 00:31:05;;;;;;;12.90;10.03;;;3.30;99.90;;;;;;5040987;28;20909;-76
2023/04/09 00:33:32;;;;;;;11.57;8.40;;;3.30;99.90;;;;;;5037589;28;20489;-75
2023/04/09 00:35:59;;;;;;;12.10;10.40;;;3.30;99.90;;;;;;5042091;28;20449;-76
2023/04/09 00:38:26;;;;;;;9.60;8.20;;;3.30;99.90;;;;;;5040000;28;20472;-75
2023/04/09 00:40:53;;;;;;;12.80;8.90;;;3.30;99.90;;;;;;5041679;28;20509;-75
2023/04/09 00:43:20;;;;;;;14.47;9.20;;;3.30;99.90;;;;;;5033185;28;20930;-75
2023/04/09 00:45:47;;;;;;;14.17;9.70;;;3.20;99.90;;;;;;5040933;28;20540;-76
2023/04/09 00:48:17;;;;;;;12.17;9.90;;;3.20;99.90;;;;;;5040126;28;20453;-75
2023/04/09 00:50:44;;;;;;;14.10;10.13;;;3.20;99.90;;;;;;5039707;28;20521;-75
2023/04/09 00:53:12;;;;;;;13.30;10.27;;;3.30;99.90;;;;;;5036525;28;20461;-75
2023/04/09 00:55:40;;;;;;;14.00;10.80;;;3.30;99.90;;;;;;5039504;28;20790;-75
2023/04/09 00:58:07;;;;;;;10.63;9.00;;;3.30;99.90;;;;;;5038905;28;20463;-75
2023/04/09 01:00:35;;;;;;;14.73;10.90;;;3.30;99.90;;;;;;5029204;28;20787;-75
2023/04/09 01:03:02;;;;;;;11.50;8.60;;;3.30;99.90;;;;;;5036844;28;20465;-75
2023/04/09 01:05:43;;;;;;;13.00;9.60;;;3.30;99.90;;;;;;5043378;28;20541;-76
2023/04/09 01:08:15;;;;;;;9.70;8.27;;;3.30;99.90;;;;;;5037664;28;20519;-76
2023/04/09 01:10:53;;;;;;;13.17;10.33;;;3.40;99.90;;;;;;5038303;28;20858;-75
2023/04/09 01:13:28;;;;;;;17.53;12.27;;;3.40;99.90;;;;;;5036014;28;20541;-75
2023/04/09 01:15:59;;;;;;;14.37;10.90;;;3.30;99.90;;;;;;5044443;28;20452;-76
2023/04/09 01:18:32;;;;;;;15.10;10.40;;;3.30;99.90;;;;;;5043232;28;20469;-75
2023/04/09 01:21:05;;;;;;;14.30;10.30;;;3.30;99.90;;;;;;5042899;28;20453;-75
2023/04/09 01:23:44;;;;;;;13.50;10.77;;;3.30;99.90;;;;;;5034451;28;20917;-75
2023/04/09 01:26:19;;;;;;;14.50;11.67;;;3.30;99.90;;;;;;5044063;28;20460;-75
2023/04/09 01:28:50;;;;;;;15.67;10.73;;;3.30;99.90;;;;;;5041566;28;20444;-75
2023/04/09 01:31:20;;;;;;;11.10;9.97;;;3.30;99.90;;;;;;5046260;28;20912;-75
2023/04/09 01:33:47;;;;;;;13.87;11.47;;;3.40;99.90;;;;;;5039292;28;20571;-75
2023/04/09 01:36:15;;;;;;;16.63;12.03;;;3.40;99.90;;;;;;5038927;28;20493;-76
2023/04/09 01:38:43;;;;;;;12.30;9.67;;;3.40;99.90;;;;;;5041561;28;20465;-75
2023/04/09 01:41:14;;;;;;;12.40;9.63;;;3.40;99.90;;;;;;5044565;28;20515;-75
2023/04/09 01:43:42;;;;;;;15.10;11.37;;;3.40;99.90;;;;;;5031760;28;20469;-75
2023/04/09 01:46:11;;;;;;;12.87;9.30;;;3.50;99.90;;;;;;5039524;28;20901;-75
2023/04/09 01:48:39;;;;;;;14.60;11.20;;;3.40;99.90;;;;;;5041859;28;20607;-75
2023/04/09 01:51:06;;;;;;;16.73;11.60;;;3.40;99.90;;;;;;5041127;28;20545;-75
2023/04/09 01:53:33;;;;;;;18.03;11.20;;;3.40;99.90;;;;;;5037526;28;20514;-75
2023/04/09 01:56:01;;;;;;;16.10;12.33;;;3.40;99.90;;;;;;5041357;28;20481;-75
2023/04/09 01:58:28;;;;;;;12.33;9.83;;;3.40;99.90;;;;;;5043489;28;20459;-75
2023/04/09 02:01:01;;;;;;;15.83;10.37;;;3.40;99.90;;;;;;5041119;28;20461;-75
2023/04/09 02:03:35;;;;;;;13.77;10.23;;;3.40;99.90;;;;;;5044652;28;20866;-75
2023/04/09 02:06:12;;;;;;;15.50;10.20;;;3.40;99.90;;;;;;5038240;28;20874;-75
2023/04/09 02:08:41;;;;;;;17.47;10.87;;;3.40;99.90;;;;;;5038559;28;20554;-75
2023/04/09 02:11:11;;;;;;;13.07;9.60;;;3.40;99.90;;;;;;5045553;28;20837;-75
2023/04/09 02:13:41;;;;;;;14.40;9.93;;;3.40;99.90;;;;;;5034399;28;20499;-75
2023/04/09 02:16:11;;;;;;;12.47;10.07;;;3.50;99.90;;;;;;5042160;28;20776;-75
2023/04/09 02:18:39;;;;;;;12.73;10.27;;;3.50;99.90;;;;;;5043731;28;20464;-75
2023/04/09 02:21:06;;;;;;;15.63;10.87;;;3.50;99.90;;;;;;5041692;28;20520;-75
2023/04/09 02:23:33;;;;;;;16.77;11.67;;;3.50;99.90;;;;;;5040780;28;20846;-75
2023/04/09 02:26:01;;;;;;;12.60;10.23;;;3.50;99.90;;;;;;5043431;28;20586;-75
2023/04/09 02:28:28;;;;;;;13.73;10.13;;;3.50;99.90;;;;;;5040145;28;20458;-75
2023/04/09 02:30:55;;;;;;;16.23;11.07;;;3.50;99.90;;;;;;5035505;28;20530;-75
2023/04/09 02:33:22;;;;;;;16.40;11.37;;;3.50;99.90;;;;;;5044422;28;20507;-75
2023/04/09 02:35:50;;;;;;;14.97;10.53;;;3.50;99.90;;;;;;5044168;28;20843;-75
2023/04/09 02:38:17;;;;;;;12.27;10.60;;;3.60;99.90;;;;;;5036469;28;20864;-75
2023/04/09 02:40:44;;;;;;;15.20;11.43;;;3.60;99.90;;;;;;5043385;28;20878;-75
2023/04/09 02:43:11;;;;;;;17.53;11.90;;;3.60;99.90;;;;;;5037178;28;20473;-76
2023/04/09 02:45:38;;;;;;;15.87;10.67;;;3.60;99.90;;;;;;5042217;28;20542;-75
2023/04/09 02:48:06;;;;;;;17.33;11.63;;;3.60;99.90;;;;;;5042712;28;20945;-75
2023/04/09 02:50:32;;;;;;;15.40;12.17;;;3.60;99.90;;;;;;5043987;28;20959;-75
2023/04/09 02:53:01;;;;;;;15.57;10.70;;;3.60;99.90;;;;;;5038884;28;20477;-75
2023/04/09 02:55:28;;;;;;;16.73;11.03;;;3.60;99.90;;;;;;5042442;28;20461;-75
2023/04/09 02:57:55;;;;;;;17.00;12.13;;;3.60;99.90;;;;;;5038796;28;20470;-75
2023/04/09 03:00:22;;;;;;;19.27;11.97;;;3.60;99.90;;;;;;5045210;28;20526;-75
2023/04/09 03:02:49;;;;;;;21.20;12.80;;;3.60;99.90;;;;;;5040533;28;20828;-75
2023/04/09 03:05:16;;;;;;;16.47;12.00;;;3.60;99.90;;;;;;5045045;28;20547;-75
2023/04/09 03:07:43;;;;;;;21.63;12.50;;;3.50;99.90;;;;;;5042112;28;20479;-75
2023/04/09 03:10:11;;;;;;;16.53;11.33;;;3.50;99.90;;;;;;5044083;28;20457;-75
2023/04/09 03:12:38;;;;;;;15.90;11.13;;;3.50;99.90;;;;;;5042733;28;20449;-75
2023/04/09 03:15:06;;;;;;;15.60;12.57;;;3.50;99.90;;;;;;5042345;28;20507;-74
2023/04/09 03:17:33;;;;;;;14.87;11.57;;;3.50;99.90;;;;;;5044033;28;20921;-75
2023/04/09 03:20:00;;;;;;;20.60;14.03;;;3.50;99.90;;;;;;5037308;28;20516;-75
2023/04/09 03:22:27;;;;;;;15.17;12.30;;;3.50;99.90;;;;;;5044268;28;20460;-75
2023/04/09 03:24:54;;;;;;;20.07;13.90;;;3.50;99.90;;;;;;5037053;28;20929;-75
2023/04/09 03:27:22;;;;;;;15.10;11.57;;;3.40;99.90;;;;;;5045124;28;20449;-75
2023/04/09 03:29:49;;;;;;;17.23;12.73;;;3.50;99.90;;;;;;5039823;28;20522;-75
2023/04/09 03:32:16;;;;;;;16.63;12.87;;;3.40;99.90;;;;;;5039222;28;20471;-75
2023/04/09 03:34:43;;;;;;;18.80;13.03;;;3.40;99.90;;;;;;5035123;28;21177;-75
2023/04/09 03:37:10;;;;;;;20.17;12.90;;;3.40;99.90;;;;;;5033939;28;20507;-75
2023/04/09 03:39:37;;;;;;;17.10;12.30;;;3.40;99.90;;;;;;5036139;28;20465;-75
2023/04/09 03:42:04;;;;;;;25.63;12.97;;;3.40;99.90;;;;;;5040791;28;20952;-75
2023/04/09 03:44:32;;;;;;;17.50;12.20;;;3.40;99.90;;;;;;5034900;28;20515;-74
2023/04/09 03:46:59;;;;;;;18.60;12.97;;;3.40;99.90;;;;;;5036447;28;20461;-74
2023/04/09 03:49:26;;;;;;;18.10;12.43;;;3.40;99.90;;;;;;5040263;28;20445;-74
2023/04/09 03:51:53;;;;;;;18.33;13.30;;;3.40;99.90;;;;;;5039433;28;20526;-74
2023/04/09 03:54:20;;;;;;;16.83;12.20;;;3.30;99.90;;;;;;5043804;28;20905;-74
2023/04/09 03:56:47;;;;;;;18.60;11.67;;;3.30;99.90;;;;;;5041112;28;20481;-75
2023/04/09 03:59:14;;;;;;;19.13;13.60;;;3.30;99.90;;;;;;5039024;28;20512;-75
2023/04/09 04:01:43;;;;;;;16.50;12.40;;;3.30;99.90;;;;;;5041151;28;20579;-74
2023/04/09 04:04:10;;;;;;;19.73;12.60;;;3.20;99.90;;;;;;5040014;28;20545;-75
2023/04/09 04:06:37;;;;;;;21.83;11.00;;;3.20;99.90;;;;;;5044295;28;20494;-75
2023/04/09 04:09:04;;;;;;;20.83;11.40;;;3.10;99.90;;;;;;5038596;28;20465;-75
2023/04/09 04:11:31;;;;;;;19.87;13.70;;;3.10;99.90;;;;;;5041473;28;20459;-74
2023/04/09 04:13:58;;;;;;;19.93;14.23;;;3.10;99.90;;;;;;5035334;28;20465;-76
2023/04/09 04:16:25;;;;;;;18.83;11.70;;;3.10;99.90;;;;;;5041049;28;20464;-75
2023/04/09 04:18:53;;;;;;;19.40;12.37;;;3.10;99.90;;;;;;5041663;28;20514;-75
2023/04/09 04:21:20;;;;;;;22.43;12.37;;;3.00;99.90;;;;;;5044090;28;20452;-75
2023/04/09 04:23:47;;;;;;;17.93;11.33;;;3.00;99.90;;;;;;5041270;28;20465;-75
2023/04/09 04:26:14;;;;;;;20.30;13.60;;;3.00;99.90;;;;;;5035947;28;20996;-75
2023/04/09 04:28:41;;;;;;;20.87;13.13;;;3.10;99.90;;;;;;5044147;28;20453;-75
2023/04/09 04:31:09;;;;;;;23.83;12.60;;;3.10;99.90;;;;;;5041252;28;20465;-75
2023/04/09 04:33:36;;;;;;;22.20;12.67;;;3.10;99.90;;;;;;5039323;28;20530;-76
2023/04/09 04:36:09;;;;;;;18.90;12.23;;;3.10;99.90;;;;;;5043031;28;20464;-75
2023/04/09 04:38:37;;;;;;;22.83;13.43;;;3.10;99.90;;;;;;5045617;28;20468;-76
2023/04/09 04:41:04;;;;;;;23.10;12.73;;;3.20;99.90;;;;;;5042196;28;20537;-75
2023/04/09 04:43:32;;;;;;;21.70;12.60;;;3.10;99.90;;;;;;5035840;28;20513;-75
2023/04/09 04:45:59;;;;;;;19.27;12.73;;;3.10;99.90;;;;;;5043493;28;20571;-75
2023/04/09 04:48:28;;;;;;;20.83;12.20;;;3.20;99.90;;;;;;5041468;28;20456;-75
2023/04/09 04:50:56;;;;;;;13.97;11.03;;;3.20;99.90;;;;;;5043011;28;20925;-75
2023/04/09 04:53:24;;;;;;;14.50;11.03;;;3.20;99.90;;;;;;5036039;28;20557;-76
2023/04/09 04:55:51;;;;;;;18.30;11.60;;;3.20;99.90;;;;;;5041001;28;20508;-76
2023/04/09 04:58:18;;;;;;;21.27;12.13;;;3.20;99.90;;;;;;5047613;28;20967;-75
2023/04/09 05:00:46;;;;;;;18.60;11.53;;;3.20;99.90;;;;;;5041800;28;20485;-75
2023/04/09 05:03:13;;;;;;;20.30;13.97;;;3.20;99.90;;;;;;5041411;28;20917;-76
2023/04/09 05:05:40;;;;;;;18.87;12.57;;;3.20;99.90;;;;;;5045502;28;20574;-75
2023/04/09 05:08:07;;;;;;;30.83;20.50;;;3.20;99.90;;;;;;5038761;28;20461;-75
2023/04/09 05:10:35;;;;;;;19.10;12.63;;;3.30;99.90;;;;;;5043312;28;20450;-75
2023/04/09 05:13:02;;;;;;;13.37;9.70;;;3.40;99.90;;;;;;5042583;28;20448;-75
2023/04/09 05:15:29;;;;;;;32.90;23.50;;;3.30;99.90;;;;;;5046752;28;20900;-75
2023/04/09 05:17:56;;;;;;;39.40;27.53;;;3.30;99.90;;;;;;5046103;28;20449;-76
2023/04/09 05:20:24;;;;;;;40.33;25.50;;;3.30;99.90;;;;;;5043240;28;20460;-76
2023/04/09 05:22:51;;;;;;;52.60;35.80;;;3.40;99.90;;;;;;5039390;28;20468;-75
2023/04/09 05:25:18;;;;;;;19.20;15.30;;;3.30;99.90;;;;;;5043993;28;20695;-75
2023/04/09 05:27:47;;;;;;;26.53;18.47;;;3.40;99.90;;;;;;5044714;28;20840;-75
2023/04/09 05:30:14;;;;;;;20.07;14.23;;;3.40;99.90;;;;;;5046666;28;20452;-75
2023/04/09 05:32:41;;;;;;;23.33;16.63;;;3.40;99.90;;;;;;5038639;28;20500;-75
2023/04/09 05:35:09;;;;;;;28.10;20.10;;;3.50;99.90;;;;;;5040844;28;20515;-75
2023/04/09 05:37:35;;;;;;;19.00;12.03;;;3.40;99.90;;;;;;5046755;28;20796;-75
2023/04/09 05:40:03;;;;;;;25.90;17.67;;;3.40;99.90;;;;;;5045099;28;20511;-75
2023/04/09 05:42:30;;;;;;;28.30;19.47;;;3.50;99.90;;;;;;5044104;28;20449;-75
2023/04/09 05:44:58;;;;;;;25.67;18.50;;;3.50;99.90;;;;;;5035383;28;20445;-75
2023/04/09 05:47:25;;;;;;;42.87;27.70;;;3.50;99.90;;;;;;5046030;28;20461;-75
2023/04/09 05:49:52;;;;;;;34.17;20.80;;;3.50;99.90;;;;;;5041037;28;20476;-75
2023/04/09 05:52:20;;;;;;;50.77;28.27;;;3.50;99.90;;;;;;5044953;28;20999;-75
2023/04/09 05:54:47;;;;;;;367.23;242.17;;;3.50;99.90;;;;;;5046243;28;20449;-75
2023/04/09 05:57:15;;;;;;;39.77;26.30;;;3.60;99.90;;;;;;5045878;28;21053;-75
2023/04/09 05:59:42;;;;;;;47.20;28.90;;;3.70;99.90;;;;;;5040589;28;20474;-75
2023/04/09 06:02:10;;;;;;;22.30;14.70;;;3.70;99.90;;;;;;5041196;28;21038;-75
2023/04/09 06:04:37;;;;;;;28.90;19.67;;;3.70;99.90;;;;;;5037952;28;20470;-75
2023/04/09 06:07:04;;;;;;;23.00;16.17;;;3.70;99.90;;;;;;5044072;28;20956;-76
2023/04/09 06:09:31;;;;;;;24.40;18.30;;;3.70;99.90;;;;;;5044742;28;20453;-76
2023/04/09 06:11:58;;;;;;;26.27;15.87;;;3.70;99.90;;;;;;5040269;28;20445;-76
2023/04/09 06:14:25;;;;;;;28.73;20.90;;;3.80;99.90;;;;;;5043682;28;20535;-75
2023/04/09 06:16:52;;;;;;;25.27;17.77;;;3.80;99.90;;;;;;5040975;28;20445;-75
2023/04/09 06:19:20;;;;;;;27.30;18.87;;;3.80;99.90;;;;;;5040844;28;20465;-76
2023/04/09 06:21:47;;;;;;;25.77;16.73;;;3.90;99.90;;;;;;5043007;28;20449;-76
2023/04/09 06:24:14;;;;;;;24.43;17.93;;;3.90;99.90;;;;;;5043171;28;20786;-76
2023/04/09 06:26:41;;;;;;;24.57;15.67;;;3.90;99.90;;;;;;5036351;28;20586;-75
2023/04/09 06:29:08;;;;;;;20.77;13.13;;;4.00;99.90;;;;;;5033082;28;20477;-75
2023/04/09 06:31:35;;;;;;;14.90;12.13;;;3.90;99.90;;;;;;5038973;28;20567;-76
2023/04/09 06:34:02;;;;;;;16.47;10.97;;;3.90;99.90;;;;;;5032106;28;20522;-76
2023/04/09 06:36:30;;;;;;;24.90;16.60;;;3.90;99.90;;;;;;5040831;28;20464;-75
2023/04/09 06:38:57;;;;;;;20.20;13.13;;;3.90;99.90;;;;;;5037321;28;20469;-75
2023/04/09 06:41:25;;;;;;;19.73;13.20;;;3.90;99.90;;;;;;5042796;28;20960;-76
2023/04/09 06:43:52;;;;;;;19.63;13.37;;;3.90;99.90;;;;;;5030422;28;20926;-75
2023/04/09 06:46:20;;;;;;;16.00;11.80;;;3.90;99.90;;;;;;5040459;28;21035;-76
2023/04/09 06:48:47;;;;;;;29.20;13.30;;;3.90;99.90;;;;;;5021378;28;20465;-75
2023/04/09 06:51:14;;;;;;;18.50;11.40;;;3.90;99.90;;;;;;5036710;28;20464;-77
2023/04/09 06:53:43;;;;;;;17.03;12.70;;;4.00;99.90;;;;;;5041138;28;20500;-76
2023/04/09 06:56:10;;;;;;;16.37;12.33;;;4.10;99.90;;;;;;5038537;28;21441;-75
2023/04/09 06:58:37;;;;;;;15.33;11.60;;;4.10;99.90;;;;;;5039189;28;20479;-75
2023/04/09 07:01:04;;;;;;;19.90;14.60;;;4.00;99.90;;;;;;5042609;28;20534;-76
2023/04/09 07:03:31;;;;;;;20.43;15.00;;;4.10;99.90;;;;;;5042503;28;20551;-75
2023/04/09 07:05:58;;;;;;;23.37;14.17;;;4.10;99.90;;;;;;5045354;28;20520;-76
2023/04/09 07:08:25;;;;;;;23.17;15.23;;;4.20;99.90;;;;;;5044437;28;20457;-76
2023/04/09 07:10:54;;;;;;;18.30;14.63;;;4.20;99.90;;;;;;5035997;28;20749;-76
2023/04/09 07:13:21;;;;;;;26.13;15.73;;;4.30;99.90;;;;;;5040772;28;20796;-76
2023/04/09 07:15:47;;;;;;;22.47;16.80;;;4.20;99.90;;;;;;5030229;28;20503;-76
2023/04/09 07:18:14;;;;;;;25.23;16.93;;;4.20;99.90;;;;;;5033123;28;20507;-76
2023/04/09 07:20:41;;;;;;;17.33;13.67;;;4.30;99.90;;;;;;5033922;28;20468;-76
2023/04/09 07:23:08;;;;;;;23.67;15.83;;;4.50;99.90;;;;;;5038345;28;20546;-76
2023/04/09 07:25:35;;;;;;;22.23;16.27;;;4.50;99.90;;;;;;5036927;28;20519;-77
2023/04/09 07:28:04;;;;;;;21.00;13.57;;;4.50;99.90;;;;;;5038658;28;20516;-77
2023/04/09 07:30:31;;;;;;;25.00;15.97;;;4.50;99.90;;;;;;5037393;28;20453;-77
2023/04/09 07:32:58;;;;;;;22.80;16.10;;;4.70;99.90;;;;;;5032374;28;20473;-76
2023/04/09 07:35:25;;;;;;;19.43;15.27;;;4.70;99.90;;;;;;5041080;28;20457;-77
2023/04/09 07:37:52;;;;;;;16.50;13.60;;;4.70;99.90;;;;;;5034467;28;20465;-77
2023/04/09 07:40:19;;;;;;;22.27;14.97;;;4.70;99.90;;;;;;5042048;28;20518;-77
2023/04/09 07:42:46;;;;;;;21.00;15.60;;;4.60;99.90;;;;;;5040111;28;20469;-77
2023/04/09 07:45:15;;;;;;;22.60;15.10;;;4.70;99.90;;;;;;5038933;28;20812;-76
2023/04/09 07:47:43;;;;;;;21.03;14.53;;;4.80;99.90;;;;;;5045427;28;20481;-77
2023/04/09 07:50:10;;;;;;;22.77;14.97;;;4.80;99.90;;;;;;5041984;28;20539;-77
2023/04/09 07:52:37;;;;;;;22.70;16.30;;;4.80;99.90;;;;;;5038602;28;20462;-77
2023/04/09 07:55:05;;;;;;;24.90;15.97;;;4.90;99.90;;;;;;5040126;28;20527;-78
2023/04/09 07:57:32;;;;;;;20.57;14.30;;;5.00;99.90;;;;;;5034821;28;20492;-77
2023/04/09 08:00:00;;;;;;;22.80;16.60;;;5.10;99.90;;;;;;5042255;28;20826;-77
2023/04/09 08:02:28;;;;;;;21.63;15.20;;;5.10;99.90;;;;;;5037028;28;20468;-77
2023/04/09 08:04:56;;;;;;;23.07;16.67;;;5.00;99.90;;;;;;5043795;28;20491;-77
2023/04/09 08:07:23;;;;;;;22.27;16.83;;;5.00;99.90;;;;;;5038168;28;20545;-77
2023/04/09 08:09:50;;;;;;;25.70;19.97;;;5.00;99.90;;;;;;5040049;28;20488;-77
2023/04/09 08:12:18;;;;;;;22.17;15.70;;;4.90;99.90;;;;;;5042017;28;20464;-77
2023/04/09 08:14:45;;;;;;;26.90;17.33;;;4.90;99.90;;;;;;5031041;28;20504;-77
2023/04/09 08:17:11;;;;;;;20.43;16.57;;;4.90;99.90;;;;;;5040071;28;20490;-77
2023/04/09 08:19:40;;;;;;;26.87;18.27;;;4.90;99.90;;;;;;5039898;28;20550;-76
2023/04/09 08:22:07;;;;;;;22.50;16.03;;;4.90;99.90;;;;;;5037770;28;20517;-77
2023/04/09 08:24:34;;;;;;;28.73;22.00;;;4.90;99.90;;;;;;5048960;28;20495;-76
2023/04/09 08:27:01;;;;;;;27.70;19.47;;;5.00;99.90;;;;;;5030714;28;21240;-76
2023/04/09 08:29:30;;;;;;;26.53;18.97;;;5.00;99.90;;;;;;5037964;28;20568;-76
2023/04/09 08:31:57;;;;;;;22.50;16.20;;;5.00;99.90;;;;;;5032685;28;20465;-77
2023/04/09 08:34:24;;;;;;;31.43;24.07;;;5.00;99.90;;;;;;5034770;28;20526;-76
2023/04/09 08:36:53;;;;;;;26.77;20.37;;;5.10;99.90;;;;;;5042139;28;20511;-76
2023/04/09 08:39:20;;;;;;;26.90;20.23;;;5.20;99.90;;;;;;5039961;28;20464;-77
2023/04/09 08:41:47;;;;;;;21.97;18.00;;;5.30;99.90;;;;;;5038875;28;20469;-77
2023/04/09 08:44:15;;;;;;;28.87;20.57;;;5.30;99.90;;;;;;5036432;28;21508;-76
2023/04/09 08:46:43;;;;;;;24.57;18.57;;;5.30;99.90;;;;;;5041860;28;20479;-76
2023/04/09 08:49:10;;;;;;;21.77;15.80;;;5.30;99.90;;;;;;5042361;28;20457;-76
2023/04/09 08:51:38;;;;;;;21.77;18.70;;;5.40;99.90;;;;;;5040561;28;20930;-77
2023/04/09 08:54:07;;;;;;;19.53;14.17;;;5.40;99.90;;;;;;5037200;28;20456;-77
2023/04/09 08:56:34;;;;;;;23.13;15.90;;;5.30;99.90;;;;;;5040826;28;20491;-77
2023/04/09 08:59:01;;;;;;;21.83;16.67;;;5.30;99.90;;;;;;5038518;28;20464;-77
2023/04/09 09:01:30;;;;;;;24.47;18.50;;;5.50;99.90;;;;;;5041581;28;20920;-77
2023/04/09 09:03:58;;;;;;;19.70;15.83;;;5.40;99.90;;;;;;5039122;28;20548;-77
2023/04/09 09:06:27;;;;;;;29.73;18.40;;;5.40;99.90;;;;;;5038811;28;20484;-77
2023/04/09 09:09:06;;;;;;;25.27;19.47;;;5.50;99.90;;;;;;5042957;28;20975;-77
2023/04/09 09:11:34;;;;;;;26.73;19.00;;;5.70;99.90;;;;;;5032953;28;20977;-77
2023/04/09 09:14:02;;;;;;;23.50;16.60;;;5.70;99.90;;;;;;5036513;28;20473;-77
2023/04/09 09:16:30;;;;;;;21.40;18.17;;;5.50;99.90;;;;;;5043478;28;20449;-77
2023/04/09 09:18:57;;;;;;;22.63;17.63;;;5.60;99.90;;;;;;5036043;28;20454;-77
2023/04/09 09:21:26;;;;;;;22.20;16.57;;;5.60;99.90;;;;;;5041759;28;20468;-77
2023/04/09 09:23:53;;;;;;;21.20;18.90;;;5.50;99.90;;;;;;5048933;28;21144;-77
2023/04/09 09:26:24;;;;;;;21.47;15.00;;;5.40;99.90;;;;;;5045115;28;20464;-77
2023/04/09 09:28:51;;;;;;;16.00;13.93;;;5.50;99.90;;;;;;5044705;28;20540;-77
2023/04/09 09:31:20;;;;;;;21.23;16.77;;;5.60;99.90;;;;;;5040468;28;20492;-77
2023/04/09 09:33:47;;;;;;;20.57;16.97;;;5.60;99.90;;;;;;5033948;28;20461;-79
2023/04/09 09:36:15;;;;;;;21.00;14.80;;;5.70;99.90;;;;;;5042001;28;20470;-77
2023/04/09 09:38:53;;;;;;;21.43;17.00;;;5.80;99.90;;;;;;5044653;28;20473;-77
2023/04/09 09:41:22;;;;;;;16.40;13.80;;;5.90;99.90;;;;;;5041258;28;20457;-77
2023/04/09 09:43:49;;;;;;;16.67;13.63;;;5.90;99.90;;;;;;5037717;28;20460;-77
2023/04/09 09:46:17;;;;;;;15.97;13.13;;;6.00;99.90;;;;;;5041407;28;20952;-76
2023/04/09 09:48:46;;;;;;;18.40;14.80;;;6.00;99.90;;;;;;5034102;28;20552;-77
2023/04/09 09:51:14;;;;;;;16.57;13.83;;;6.00;99.90;;;;;;5032603;28;20468;-77
2023/04/09 09:53:43;;;;;;;17.20;11.67;;;6.00;99.90;;;;;;5038246;28;20558;-76
2023/04/09 09:56:16;;;;;;;16.70;13.97;;;6.10;99.90;;;;;;5041545;28;20974;-76
2023/04/09 09:58:53;;;;;;;20.23;18.13;;;5.90;99.90;;;;;;5043498;28;20488;-76
2023/04/09 10:01:21;;;;;;;14.37;12.67;;;6.00;99.90;;;;;;5043907;28;20469;-76
2023/04/09 10:03:52;;;;;;;14.77;13.13;;;6.10;99.90;;;;;;5041849;28;20522;-76
2023/04/09 10:06:19;;;;;;;15.07;12.63;;;6.30;99.90;;;;;;5041308;28;20488;-76
2023/04/09 10:08:48;;;;;;;16.87;13.20;;;6.40;99.90;;;;;;5044882;28;20457;-76
2023/04/09 10:11:15;;;;;;;15.60;12.17;;;6.50;99.90;;;;;;5039227;28;20929;-76
2023/04/09 10:13:50;;;;;;;12.87;11.57;;;6.50;99.90;;;;;;5039417;28;21042;-76
2023/04/09 10:16:17;;;;;;;15.47;12.50;;;6.60;99.90;;;;;;5039946;28;20447;-76
2023/04/09 10:18:44;;;;;;;12.83;11.00;;;6.60;99.90;;;;;;5032209;28;20466;-76
2023/04/09 10:21:24;;;;;;;14.67;11.10;;;6.50;99.90;;;;;;5031495;28;20545;-76
2023/04/09 10:23:51;;;;;;;12.10;10.90;;;6.60;99.90;;;;;;5038682;28;20449;-76
2023/04/09 10:26:18;;;;;;;13.73;12.13;;;6.60;99.90;;;;;;5040031;28;20780;-76
2023/04/09 10:28:45;;;;;;;15.23;11.77;;;6.80;99.90;;;;;;5036842;28;20968;-76
2023/04/09 10:31:14;;;;;;;13.70;11.50;;;6.80;99.90;;;;;;5040177;28;20459;-76
2023/04/09 10:33:44;;;;;;;13.50;11.20;;;7.00;99.90;;;;;;5045664;28;20468;-76
2023/04/09 10:36:12;;;;;;;16.50;12.10;;;7.10;99.90;;;;;;5037697;28;20470;-76
2023/04/09 10:38:41;;;;;;;12.17;9.83;;;7.00;99.90;;;;;;5040788;28;20913;-76
2023/04/09 10:41:13;;;;;;;13.20;11.17;;;7.00;99.90;;;;;;5040352;28;20537;-76
2023/04/09 10:43:40;;;;;;;16.83;15.00;;;6.90;99.90;;;;;;5032775;28;20546;-77
2023/04/09 10:46:25;;;;;;;12.00;10.50;;;7.00;99.90;;;;;;5034599;28;20449;-76
2023/04/09 10:49:12;;;;;;;13.67;11.57;;;6.90;99.90;;;;;;5039797;28;20880;-76
2023/04/09 10:51:40;;;;;;;15.23;12.67;;;6.90;99.90;;;;;;5035798;28;20444;-76
2023/04/09 10:54:44;;;;;;;16.17;12.27;;;7.10;99.90;;;;;;5038783;28;20448;-76
2023/04/09 10:57:21;;;;;;;13.50;11.60;;;7.20;99.90;;;;;;5037013;28;20563;-76
2023/04/09 10:59:50;;;;;;;11.70;10.50;;;7.00;99.90;;;;;;5033105;28;20474;-76
2023/04/09 11:02:48;;;;;;;12.37;10.97;;;7.10;99.90;;;;;;5036807;28;20449;-76
2023/04/09 11:05:35;;;;;;;13.40;12.00;;;7.30;99.90;;;;;;5031636;28;20461;-76
2023/04/09 11:08:09;;;;;;;11.73;10.40;;;7.40;99.90;;;;;;5038510;28;20485;-76
2023/04/09 11:10:37;;;;;;;12.10;10.90;;;7.40;99.90;;;;;;5036263;28;20459;-76
2023/04/09 11:13:04;;;;;;;11.77;10.33;;;7.30;99.90;;;;;;5043179;28;20454;-76
2023/04/09 11:15:34;;;;;;;14.03;11.73;;;7.70;99.90;;;;;;5043019;28;20461;-76
2023/04/09 11:18:01;;;;;;;14.33;12.33;;;7.90;99.90;;;;;;5042806;28;20456;-77
2023/04/09 11:20:29;;;;;;;14.37;12.87;;;8.10;99.90;;;;;;5033943;28;20493;-76
2023/04/09 11:23:00;;;;;;;11.90;10.37;;;8.10;99.90;;;;;;5041263;28;20473;-77
2023/04/09 11:25:29;;;;;;;26.57;19.27;;;8.00;99.90;;;;;;5041905;28;20853;-76
2023/04/09 11:27:56;;;;;;;12.90;11.57;;;8.20;99.90;;;;;;5039837;28;20574;-76
2023/04/09 11:30:24;;;;;;;23.00;18.40;;;8.30;99.90;;;;;;5041983;28;20503;-76
2023/04/09 11:32:51;;;;;;;16.90;12.20;;;8.50;99.90;;;;;;5036419;28;20454;-76
2023/04/09 11:35:19;;;;;;;15.17;13.10;;;8.70;99.90;;;;;;5037212;28;20532;-76
2023/04/09 11:37:47;;;;;;;17.23;14.47;;;8.60;99.90;;;;;;5044971;28;20499;-76
2023/04/09 11:40:20;;;;;;;16.70;14.37;;;8.60;99.90;;;;;;5041692;28;20730;-77
2023/04/09 11:42:49;;;;;;;15.37;11.97;;;8.70;99.90;;;;;;5037522;28;20523;-77
2023/04/09 11:45:18;;;;;;;13.77;12.47;;;9.30;99.90;;;;;;5042112;28;20529;-76
2023/04/09 11:47:46;;;;;;;16.20;14.60;;;9.20;99.90;;;;;;5035223;28;20489;-76
2023/04/09 11:50:14;;;;;;;16.43;14.83;;;9.10;99.90;;;;;;5042580;28;20467;-77
2023/04/09 11:52:41;;;;;;;15.70;14.00;;;9.60;99.90;;;;;;5043681;28;20445;-77
2023/04/09 11:55:10;;;;;;;16.07;13.60;;;10.00;99.90;;;;;;5035398;28;20543;-76
2023/04/09 11:57:41;;;;;;;14.80;13.20;;;9.80;99.90;;;;;;5038140;28;20958;-77
2023/04/09 12:00:10;;;;;;;18.90;16.23;;;9.70;99.90;;;;;;5038342;28;21031;-77
2023/04/09 12:02:40;;;;;;;14.77;13.13;;;9.70;99.90;;;;;;5042370;28;20468;-76
2023/04/09 12:05:12;;;;;;;18.93;14.93;;;9.40;99.90;;;;;;5039528;28;21024;-76
2023/04/09 12:07:40;;;;;;;21.97;17.20;;;9.40;99.90;;;;;;5041161;28;20525;-77
2023/04/09 12:10:10;;;;;;;25.80;18.20;;;9.40;99.90;;;;;;5034155;28;20492;-77
2023/04/09 12:12:45;;;;;;;19.80;15.47;;;9.40;99.90;;;;;;5032872;28;20478;-77
2023/04/09 12:15:23;;;;;;;15.60;13.53;;;9.50;99.90;;;;;;5035862;28;20559;-78
2023/04/09 12:17:51;;;;;;;14.07;12.57;;;9.60;99.90;;;;;;5026699;28;20514;-77
2023/04/09 12:20:32;;;;;;;29.33;18.20;;;9.80;99.90;;;;;;5033885;28;20489;-77
2023/04/09 12:23:02;;;;;;;15.27;11.83;;;9.80;99.90;;;;;;5029531;28;20464;-81
2023/04/09 12:25:29;;;;;;;14.23;12.80;;;9.50;99.90;;;;;;5038918;28;20515;-77
2023/04/09 12:27:58;;;;;;;15.00;13.40;;;9.40;99.90;;;;;;5036465;28;21035;-77
2023/04/09 12:30:25;;;;;;;13.43;11.97;;;9.00;99.90;;;;;;5028663;28;20537;-77
2023/04/09 12:32:53;;;;;;;13.33;11.37;;;9.50;99.90;;;;;;5040759;28;20942;-77
2023/04/09 12:35:20;;;;;;;13.00;11.67;;;9.50;99.90;;;;;;5038599;28;20920;-77
2023/04/09 12:37:48;;;;;;;15.50;13.90;;;9.70;99.90;;;;;;5038921;28;20463;-77
2023/04/09 12:40:15;;;;;;;15.50;13.07;;;9.70;99.90;;;;;;5043479;28;20472;-77
2023/04/09 12:42:45;;;;;;;16.23;13.40;;;9.50;99.90;;;;;;5040192;28;20713;-77
2023/04/09 12:45:15;;;;;;;22.77;17.73;;;9.30;99.90;;;;;;5036000;28;20468;-77